Time;durP1;ratioP1;P1;durP2;ratioP2;P2;SDS_P1;SDS_P2;PMS_P1;PMS_P2;Temp;Humidity;BMP_temperature;BMP_pressure;BME280_temperature;BME280_humidity;BME280_pressure;Samples;Min_cycle;Max_cycle;Signal;HPM_P1;HPM_P2
2024/04/20 00:01:12;;;;;;;7.00;3.10;;;5.50;88.10;;;4.53;93.63;97119.19;5421579;26;20504;-82
2024/04/20 00:03:44;;;;;;;5.20;3.27;;;5.50;88.20;;;4.56;93.65;97116.13;5407549;26;20593;-75
2024/04/20 00:06:13;;;;;;;3.87;3.47;;;5.50;88.40;;;4.57;93.85;97119.63;5445520;26;20514;-79
2024/04/20 00:08:42;;;;;;;5.20;4.47;;;5.50;88.70;;;4.48;93.02;97122.47;5441709;26;20462;-80
2024/04/20 00:11:12;;;;;;;4.60;2.77;;;5.50;87.60;;;4.43;93.74;97126.78;5426187;26;20562;-78
2024/04/20 00:13:44;;;;;;;3.70;3.40;;;5.50;87.90;;;4.53;93.72;97122.69;5437515;26;22922;-81
2024/04/20 00:16:13;;;;;;;5.07;3.13;;;5.50;88.40;;;4.36;94.08;97126.72;5416285;26;21419;-79
2024/04/20 00:18:45;;;;;;;4.47;2.80;;;5.40;88.30;;;4.34;93.67;97120.75;5452614;26;20477;-82
2024/04/20 00:21:14;;;;;;;1.63;1.53;;;5.40;87.80;;;4.43;92.97;97124.91;5412458;26;20455;-83
2024/04/20 00:23:44;;;;;;;3.33;3.03;;;5.40;87.40;;;4.36;93.53;97132.09;5425808;26;20460;-81
2024/04/20 00:26:13;;;;;;;4.90;3.00;;;5.40;87.60;;;4.34;93.02;97121.56;5463833;26;20464;-80
2024/04/20 00:28:42;;;;;;;3.23;2.83;;;5.40;87.40;;;4.36;93.65;97121.38;5437248;26;20464;-84
2024/04/20 00:31:11;;;;;;;4.27;3.53;;;5.40;87.80;;;4.37;93.62;97145.25;5439763;26;20520;-78
2024/04/20 00:33:40;;;;;;;2.43;2.23;;;5.40;88.10;;;4.04;93.79;97076.34;5456188;26;20506;-81
2024/04/20 00:36:12;;;;;;;5.27;3.00;;;5.40;88.20;;;4.40;93.87;97130.66;5463193;26;20463;-80
2024/04/20 00:38:38;;;;;;;4.07;3.00;;;5.40;88.30;;;4.35;94.63;97141.13;5457348;26;20444;-83
2024/04/20 00:41:07;;;;;;;5.50;2.83;;;5.40;88.80;;;4.25;94.90;97131.59;5461498;26;20457;-77
2024/04/20 00:43:36;;;;;;;5.07;3.40;;;5.30;88.60;;;4.30;94.91;97143.53;5439468;26;23385;-76
2024/04/20 00:46:07;;;;;;;3.83;3.23;;;5.30;88.90;;;4.28;95.02;97137.56;5441169;26;20471;-84
2024/04/20 00:48:36;;;;;;;6.50;2.80;;;5.30;89.00;;;4.26;95.63;97140.47;5474061;26;20504;-83
2024/04/20 00:51:06;;;;;;;7.63;2.93;;;5.30;89.80;;;4.14;95.88;97137.50;5455321;26;20523;-78
2024/04/20 00:53:38;;;;;;;3.67;2.93;;;5.30;90.00;;;4.04;96.19;97129.00;5432459;26;20557;-85
2024/04/20 00:56:09;;;;;;;4.77;2.90;;;5.20;90.00;;;4.19;96.22;97150.28;5435503;26;20471;-78
2024/04/20 00:58:39;;;;;;;5.10;3.20;;;5.20;90.10;;;4.14;96.06;97150.84;5470066;26;20540;-75
2024/04/20 01:01:08;;;;;;;4.17;2.70;;;5.20;90.00;;;4.17;95.89;97146.97;5455055;26;20452;-79
2024/04/20 01:03:37;;;;;;;7.30;3.03;;;5.20;90.00;;;4.18;96.23;97149.47;5465316;26;20447;-81
2024/04/20 01:06:06;;;;;;;4.20;2.67;;;5.20;90.30;;;4.14;95.72;97156.19;5440680;26;20516;-85
2024/04/20 01:08:40;;;;;;;3.00;2.70;;;5.20;90.00;;;4.06;95.91;97162.53;5463511;26;20525;-83
2024/04/20 01:11:11;;;;;;;4.93;2.73;;;5.20;89.40;;;4.12;96.54;97166.28;5445591;26;20485;-83
2024/04/20 01:13:40;;;;;;;5.83;2.93;;;5.20;90.00;;;4.04;96.85;97153.88;5437419;26;20904;-83
2024/04/20 01:16:09;;;;;;;4.03;2.63;;;5.20;90.20;;;4.13;96.56;97167.91;5415214;26;21124;-82
2024/04/20 01:18:38;;;;;;;3.17;2.80;;;5.20;90.30;;;4.04;96.31;97161.91;5426798;26;20461;-81
2024/04/20 01:21:08;;;;;;;3.17;2.73;;;5.20;90.10;;;4.15;97.02;97168.53;5452735;26;21297;-80
2024/04/20 01:23:41;;;;;;;4.90;3.30;;;5.20;90.50;;;3.99;96.19;97150.13;5459832;26;20456;-82
2024/04/20 01:26:12;;;;;;;4.40;2.40;;;5.20;90.00;;;4.09;96.64;97172.00;5460839;26;20830;-85
2024/04/20 01:28:41;;;;;;;4.80;2.57;;;5.20;90.60;;;4.01;96.28;97169.47;5454361;26;20442;-82
2024/04/20 01:31:10;;;;;;;4.93;2.87;;;5.20;89.90;;;4.13;96.58;97172.47;5451831;26;21056;-82
2024/04/20 01:33:39;;;;;;;3.60;2.50;;;5.20;90.20;;;4.14;96.10;97174.91;5462313;26;20456;-83
2024/04/20 01:36:10;;;;;;;3.90;3.30;;;5.20;90.30;;;4.09;96.20;97182.72;5460688;26;20472;-82
2024/04/20 01:38:39;;;;;;;3.00;2.70;;;5.20;90.00;;;4.09;95.61;97186.22;5448759;26;20448;-81
2024/04/20 01:41:08;;;;;;;4.03;2.90;;;5.20;89.90;;;4.10;95.73;97200.41;5461340;26;20966;-80
2024/04/20 01:43:39;;;;;;;3.90;2.93;;;5.20;90.00;;;4.15;95.80;97205.16;5444103;26;20472;-77
2024/04/20 01:46:09;;;;;;;2.40;2.20;;;5.20;90.00;;;4.12;95.59;97203.69;5471247;26;20544;-83
2024/04/20 01:48:38;;;;;;;2.53;2.33;;;5.20;89.50;;;4.12;95.25;97198.34;5453427;26;20447;-82
2024/04/20 01:51:08;;;;;;;4.80;2.50;;;5.20;89.20;;;4.18;95.96;97207.44;5453571;26;20456;-72
2024/04/20 01:53:37;;;;;;;3.03;2.73;;;5.20;90.10;;;4.14;96.09;97209.69;5431029;26;20489;-72
2024/04/20 01:56:07;;;;;;;4.40;3.10;;;5.20;90.00;;;4.07;96.41;97216.84;5453565;26;20938;-81
2024/04/20 01:58:43;;;;;;;2.87;2.33;;;5.20;90.20;;;4.12;96.89;97209.06;5450726;26;20449;-74
2024/04/20 02:01:12;;;;;;;3.60;3.13;;;5.10;90.60;;;4.07;97.36;97217.66;5429358;26;20456;-82
2024/04/20 02:03:41;;;;;;;3.33;3.03;;;5.10;90.70;;;4.07;97.14;97227.53;5446178;26;20465;-77
2024/04/20 02:06:19;;;;;;;3.43;3.10;;;5.10;90.70;;;4.04;98.01;97223.38;5426877;26;20464;-80
2024/04/20 02:08:48;;;;;;;2.97;2.50;;;5.10;90.90;;;4.02;97.83;97219.25;5461428;26;20521;-80
2024/04/20 02:11:17;;;;;;;4.17;3.30;;;5.10;90.90;;;4.08;97.94;97221.97;5467479;26;20457;-79
2024/04/20 02:13:52;;;;;;;5.70;3.00;;;5.10;91.10;;;4.13;97.27;97225.94;5478178;26;20575;-75
2024/04/20 02:16:21;;;;;;;3.33;3.03;;;5.10;90.90;;;4.09;96.24;97233.50;5464932;26;20452;-75
2024/04/20 02:18:50;;;;;;;3.73;3.03;;;5.10;90.40;;;4.16;96.02;97236.22;5457999;26;20449;-77
2024/04/20 02:21:20;;;;;;;3.40;2.97;;;5.20;90.20;;;4.08;96.14;97240.69;5450966;26;20509;-72
2024/04/20 02:23:50;;;;;;;3.17;2.97;;;5.10;90.00;;;4.11;95.83;97239.47;5458553;26;20483;-83
2024/04/20 02:26:20;;;;;;;4.07;2.60;;;5.20;90.00;;;4.18;95.47;97248.41;5439639;26;21307;-75
2024/04/20 02:28:53;;;;;;;6.30;3.20;;;5.20;90.00;;;4.23;95.74;97253.97;5454629;26;20456;-83
2024/04/20 02:31:24;;;;;;;7.10;3.10;;;5.20;90.10;;;4.11;94.89;97245.66;5432513;26;20818;-81
2024/04/20 02:33:54;;;;;;;3.47;2.57;;;5.20;89.60;;;4.12;95.46;97257.19;5456412;26;20595;-75
2024/04/20 02:36:30;;;;;;;3.50;2.70;;;5.20;89.60;;;4.25;94.69;97262.63;5439811;26;21001;-78
2024/04/20 02:39:01;;;;;;;2.70;2.17;;;5.20;89.20;;;4.19;94.16;97260.75;5428294;26;20654;-83
2024/04/20 02:41:32;;;;;;;3.73;3.40;;;5.20;88.60;;;4.14;94.37;97270.38;5435042;26;20461;-81
2024/04/20 02:44:04;;;;;;;2.70;2.50;;;5.20;88.30;;;4.14;93.97;97273.84;5455243;26;20874;-84
2024/04/20 02:46:33;;;;;;;3.80;2.83;;;5.20;88.30;;;4.13;93.95;97277.53;5452180;26;20464;-77
2024/04/20 02:49:02;;;;;;;3.77;2.87;;;5.20;88.30;;;4.10;94.28;97272.59;5452137;26;20894;-84
2024/04/20 02:51:32;;;;;;;4.13;3.50;;;5.20;88.10;;;4.05;94.62;97267.81;5461300;26;20534;-84
2024/04/20 02:54:01;;;;;;;4.83;2.90;;;5.10;88.50;;;4.06;94.90;97279.34;5443121;26;21107;-84
2024/04/20 02:56:30;;;;;;;4.37;2.90;;;5.10;88.70;;;3.99;94.50;97273.09;5456240;26;20460;-77
2024/04/20 02:59:03;;;;;;;3.40;3.10;;;5.10;88.60;;;4.00;94.23;97280.09;5448491;26;20684;-84
2024/04/20 03:01:32;;;;;;;3.03;2.30;;;5.10;88.10;;;3.92;94.35;97273.88;5451431;26;20511;-73
2024/04/20 03:04:02;;;;;;;3.40;3.10;;;5.10;88.40;;;3.92;95.06;97262.34;5464404;26;20520;-78
2024/04/20 03:06:31;;;;;;;3.07;2.87;;;5.00;88.90;;;4.04;95.01;97276.03;5461440;26;20521;-72
2024/04/20 03:09:02;;;;;;;4.67;3.20;;;5.10;89.10;;;3.92;94.61;97257.84;5451384;26;20511;-76
2024/04/20 03:11:31;;;;;;;3.40;3.10;;;5.10;89.00;;;3.56;95.83;97213.28;5454125;26;20448;-78
2024/04/20 03:14:04;;;;;;;3.60;3.30;;;5.00;89.60;;;3.89;95.80;97286.78;5449165;26;20462;-73
2024/04/20 03:16:33;;;;;;;5.97;4.10;;;4.90;89.80;;;3.76;96.57;97292.81;5447753;26;21015;-81
2024/04/20 03:19:02;;;;;;;6.70;3.37;;;4.90;90.10;;;3.83;97.05;97296.38;5442804;26;20444;-79
2024/04/20 03:21:32;;;;;;;5.13;3.50;;;4.80;90.40;;;3.49;97.56;97260.47;5426447;26;20559;-81
2024/04/20 03:24:00;;;;;;;5.83;3.70;;;4.80;90.70;;;3.57;97.56;97292.44;5424608;26;20468;-84
2024/04/20 03:26:30;;;;;;;4.33;3.00;;;4.80;90.70;;;3.59;97.85;97294.91;5432058;26;23512;-82
2024/04/20 03:28:59;;;;;;;4.00;3.70;;;4.80;90.80;;;3.67;97.79;97305.47;5456937;26;20805;-75
2024/04/20 03:31:31;;;;;;;3.40;3.10;;;4.80;91.00;;;3.78;97.68;97314.84;5446424;26;20805;-81
2024/04/20 03:34:00;;;;;;;3.57;3.27;;;4.80;91.00;;;3.64;98.04;97322.72;5447478;26;21024;-82
2024/04/20 03:36:29;;;;;;;4.80;4.00;;;4.70;91.10;;;3.64;98.31;97325.38;5440356;26;20566;-82
2024/04/20 03:38:58;;;;;;;3.93;3.37;;;4.70;91.10;;;3.62;97.73;97326.56;5454435;26;20453;-75
2024/04/20 03:41:27;;;;;;;3.47;3.10;;;4.70;90.90;;;3.65;97.70;97332.38;5447415;26;20459;-80
2024/04/20 03:43:58;;;;;;;4.07;3.67;;;4.70;90.80;;;3.72;97.01;97328.97;5446647;26;20928;-72
2024/04/20 03:46:31;;;;;;;4.83;3.30;;;4.80;90.60;;;3.68;96.95;97334.66;5404548;26;20445;-78
2024/04/20 03:49:04;;;;;;;5.30;4.17;;;4.80;90.50;;;3.81;96.98;97343.84;5462725;26;20506;-83
2024/04/20 03:51:35;;;;;;;5.57;3.50;;;4.80;90.50;;;3.22;96.69;97249.47;5454916;26;20449;-81
2024/04/20 03:54:04;;;;;;;3.83;3.30;;;4.80;90.20;;;3.71;96.95;97345.97;5423311;26;20484;-70
2024/04/20 03:56:34;;;;;;;3.77;3.47;;;4.80;90.30;;;3.71;96.42;97356.66;5390393;26;21509;-79
2024/04/20 03:59:03;;;;;;;3.27;2.80;;;4.80;90.10;;;3.81;95.82;97343.84;5446398;26;20514;-82
2024/04/20 04:01:36;;;;;;;3.43;3.13;;;4.80;90.10;;;3.65;96.54;97340.38;5467886;26;20506;-83
2024/04/20 04:04:07;;;;;;;3.43;3.07;;;4.80;90.00;;;3.60;96.30;97350.81;5414601;26;20479;-84
2024/04/20 04:06:38;;;;;;;2.97;2.77;;;4.80;89.80;;;3.57;95.89;97348.53;5425155;26;20480;-84
2024/04/20 04:09:09;;;;;;;3.70;3.40;;;4.80;89.70;;;3.42;95.71;97326.34;5465034;26;20517;-84
2024/04/20 04:11:40;;;;;;;2.77;2.57;;;4.80;89.50;;;3.58;95.49;97363.53;5439797;26;20466;-74
2024/04/20 04:14:10;;;;;;;2.83;2.60;;;4.80;88.70;;;3.57;95.16;97364.56;5442418;26;20464;-84
2024/04/20 04:16:52;;;;;;;4.17;2.97;;;4.80;88.50;;;3.57;95.55;97372.56;5455324;26;20465;-84
2024/04/20 04:19:26;;;;;;;3.40;2.80;;;4.80;88.40;;;3.56;95.84;97362.88;5450091;26;20948;-84
2024/04/20 04:21:58;;;;;;;3.40;3.10;;;4.80;89.10;;;3.68;95.95;97374.75;5447067;26;20599;-78
2024/04/20 04:24:30;;;;;;;4.37;3.23;;;4.80;89.20;;;3.26;95.42;97318.34;5430846;26;20580;-83
2024/04/20 04:27:13;;;;;;;3.80;3.27;;;4.80;88.80;;;3.66;95.71;97381.31;5446178;26;20830;-73
2024/04/20 04:29:43;;;;;;;4.07;3.30;;;4.80;88.90;;;3.26;95.82;97317.50;5446164;26;20584;-72
2024/04/20 04:32:17;;;;;;;3.63;3.30;;;4.80;89.00;;;3.87;95.51;97388.53;5475576;26;20512;-80
2024/04/20 04:34:49;;;;;;;4.07;3.67;;;4.90;89.70;;;3.74;95.17;97393.72;5436656;26;20463;-86
2024/04/20 04:37:20;;;;;;;2.97;2.67;;;4.90;89.00;;;3.66;95.82;97398.16;5430160;26;20529;-73
2024/04/20 04:39:49;;;;;;;3.70;3.30;;;4.80;89.10;;;3.65;95.95;97395.69;5453170;26;20457;-81
2024/04/20 04:42:19;;;;;;;4.40;2.90;;;4.80;89.20;;;3.73;95.96;97397.41;5454441;26;20933;-76
2024/04/20 04:44:48;;;;;;;5.17;2.73;;;4.80;89.70;;;3.68;95.85;97406.00;5462475;26;20565;-80
2024/04/20 04:47:20;;;;;;;4.10;2.67;;;4.80;89.00;;;3.67;95.20;97425.72;5460305;26;20464;-79
2024/04/20 04:49:49;;;;;;;3.33;3.03;;;4.80;88.80;;;3.67;95.16;97413.16;5406297;26;20456;-77
2024/04/20 04:52:19;;;;;;;2.30;2.10;;;4.80;88.70;;;3.35;95.09;97351.13;5404444;26;21078;-79
2024/04/20 04:54:48;;;;;;;4.47;2.70;;;4.90;88.80;;;3.75;94.70;97422.09;5429394;26;20461;-79
2024/04/20 04:57:19;;;;;;;2.87;2.67;;;4.90;88.30;;;3.64;94.87;97423.38;5413929;26;20522;-82
2024/04/20 04:59:47;;;;;;;3.13;2.83;;;4.80;88.20;;;3.84;94.33;97442.34;5439796;26;20522;-80
2024/04/20 05:02:20;;;;;;;2.57;2.40;;;4.90;88.50;;;3.69;94.43;97429.03;5413499;26;20627;-85
2024/04/20 05:04:49;;;;;;;2.93;2.73;;;4.90;87.80;;;3.65;94.58;97433.91;5419618;26;20461;-79
2024/04/20 05:07:18;;;;;;;3.40;3.10;;;4.80;87.80;;;3.71;94.71;97444.84;5413895;26;20468;-78
2024/04/20 05:09:49;;;;;;;3.20;2.80;;;4.80;88.20;;;3.72;94.75;97458.03;5439390;26;20508;-76
2024/04/20 05:12:18;;;;;;;3.03;2.83;;;4.80;88.20;;;3.62;94.83;97454.81;5461028;26;20463;-78
2024/04/20 05:14:51;;;;;;;3.60;3.27;;;4.80;88.10;;;3.58;94.65;97438.34;5458091;26;20465;-77
2024/04/20 05:17:23;;;;;;;2.70;2.50;;;4.80;88.00;;;3.63;94.58;97446.63;5458996;26;20460;-79
2024/04/20 05:19:52;;;;;;;3.00;2.63;;;4.80;88.00;;;3.79;94.19;97460.78;5451828;26;20524;-71
2024/04/20 05:22:21;;;;;;;3.47;2.73;;;4.90;88.00;;;3.69;93.63;97464.56;5484110;26;20493;-80
2024/04/20 05:24:50;;;;;;;2.60;2.40;;;4.90;87.10;;;3.79;93.26;97471.47;5474343;26;20524;-79
2024/04/20 05:27:19;;;;;;;2.63;2.43;;;4.90;87.10;;;3.77;93.00;97462.81;5463495;26;20455;-82
2024/04/20 05:29:48;;;;;;;3.10;2.67;;;4.90;86.70;;;3.87;92.20;97470.56;5463973;26;20579;-78
2024/04/20 05:32:18;;;;;;;2.87;2.63;;;5.00;86.50;;;4.04;91.19;97473.88;5450595;26;20591;-75
2024/04/20 05:34:50;;;;;;;2.33;2.07;;;5.00;85.80;;;3.75;90.25;97440.81;5443081;26;21190;-84
2024/04/20 05:37:19;;;;;;;4.13;2.47;;;5.00;85.00;;;3.88;90.72;97496.25;5458761;26;20561;-81
2024/04/20 05:39:49;;;;;;;4.00;3.60;;;5.00;84.90;;;3.96;90.41;97488.97;5456917;26;20448;-78
2024/04/20 05:42:18;;;;;;;16.30;8.47;;;5.00;84.80;;;3.93;90.34;97489.34;5453097;26;21049;-75
2024/04/20 05:44:47;;;;;;;5.43;4.10;;;5.00;84.70;;;3.50;90.20;97425.91;5465563;26;20461;-76
2024/04/20 05:47:17;;;;;;;2.53;2.33;;;5.00;84.90;;;4.00;89.71;97512.66;5459069;26;20464;-73
2024/04/20 05:49:49;;;;;;;3.47;2.33;;;5.00;84.50;;;4.00;89.18;97518.84;5441771;26;20519;-72
2024/04/20 05:52:19;;;;;;;2.43;2.23;;;5.10;84.20;;;4.00;89.28;97523.34;5430820;26;20468;-74
2024/04/20 05:54:49;;;;;;;2.90;2.70;;;5.10;84.10;;;3.82;89.52;97530.75;5456675;26;21106;-71
2024/04/20 05:57:20;;;;;;;2.87;2.57;;;4.90;83.60;;;4.03;89.12;97529.16;5458478;26;21159;-78
2024/04/20 05:59:49;;;;;;;3.93;2.23;;;5.00;83.90;;;4.05;88.91;97513.75;5438736;26;20464;-76
2024/04/20 06:02:17;;;;;;;3.60;2.80;;;5.20;84.20;;;3.84;88.51;97490.47;5437187;26;20986;-75
2024/04/20 06:04:50;;;;;;;2.17;1.97;;;5.10;84.00;;;4.03;88.61;97539.03;5452303;26;20520;-76
2024/04/20 06:07:18;;;;;;;4.33;2.43;;;5.10;83.60;;;4.00;88.75;97542.91;5470469;26;20461;-78
2024/04/20 06:09:48;;;;;;;2.40;2.17;;;5.10;83.70;;;3.92;88.79;97551.84;5441533;26;20997;-73
2024/04/20 06:12:18;;;;;;;2.50;2.30;;;5.00;83.40;;;3.93;89.26;97558.00;5420844;26;20458;-73
2024/04/20 06:14:47;;;;;;;3.13;2.20;;;5.00;84.10;;;3.90;89.99;97561.91;5475326;26;20520;-71
2024/04/20 06:17:16;;;;;;;2.63;2.37;;;5.00;84.10;;;3.90;90.32;97564.56;5466004;26;20454;-72
2024/04/20 06:19:45;;;;;;;2.50;2.10;;;5.00;84.60;;;3.86;90.14;97554.44;5418201;26;20967;-74
2024/04/20 06:22:17;;;;;;;3.67;2.30;;;5.00;84.40;;;3.70;89.84;97542.91;5439772;26;20455;-73
2024/04/20 06:24:48;;;;;;;2.80;2.60;;;4.90;84.10;;;3.78;90.56;97563.38;5467890;26;21035;-75
2024/04/20 06:27:17;;;;;;;3.30;3.00;;;4.90;84.50;;;3.76;90.03;97562.72;5460424;26;21100;-70
2024/04/20 06:29:46;;;;;;;3.83;2.50;;;4.80;84.10;;;3.77;90.02;97562.53;5397051;26;20452;-74
2024/04/20 06:32:16;;;;;;;3.00;2.20;;;4.90;84.30;;;3.88;89.50;97568.44;5397139;26;20473;-75
2024/04/20 06:34:45;;;;;;;5.07;2.60;;;5.00;84.00;;;3.89;88.88;97562.91;5441490;26;20943;-70
2024/04/20 06:37:17;;;;;;;2.80;2.60;;;5.00;83.50;;;3.94;88.32;97579.22;5448864;26;21322;-73
2024/04/20 06:39:49;;;;;;;2.70;2.47;;;5.00;83.40;;;4.07;87.67;97588.44;5451984;26;20456;-75
2024/04/20 06:42:18;;;;;;;3.10;2.30;;;5.10;83.00;;;4.11;86.37;97585.22;5458329;26;21212;-75
2024/04/20 06:44:52;;;;;;;2.40;2.20;;;5.20;82.40;;;4.08;86.28;97580.22;5467667;26;20519;-74
2024/04/20 06:47:20;;;;;;;3.27;2.97;;;5.20;82.10;;;4.39;85.58;97591.75;5466896;26;21436;-75
2024/04/20 06:49:55;;;;;;;2.50;2.30;;;5.40;82.30;;;4.57;84.20;97595.88;5444818;26;20468;-73
2024/04/20 06:52:26;;;;;;;2.60;2.40;;;5.50;81.50;;;4.28;82.58;97546.75;5439965;26;20468;-75
2024/04/20 06:54:56;;;;;;;2.80;2.40;;;5.70;80.60;;;4.62;81.69;97604.16;5426396;26;20465;-73
2024/04/20 06:57:24;;;;;;;2.13;2.03;;;5.70;79.80;;;4.68;81.92;97606.91;5425637;26;20459;-73
2024/04/20 06:59:53;;;;;;;2.63;2.43;;;5.70;79.90;;;4.67;81.71;97607.94;5457268;26;20457;-75
2024/04/20 07:02:22;;;;;;;4.10;2.03;;;5.70;79.60;;;4.92;81.39;97607.59;5433665;26;20468;-74
2024/04/20 07:04:52;;;;;;;4.37;2.20;;;5.90;80.10;;;5.01;81.03;97634.28;5426262;26;20527;-69
2024/04/20 07:07:21;;;;;;;2.40;2.07;;;6.00;79.40;;;4.96;80.53;97616.91;5450279;26;20597;-76
2024/04/20 07:09:53;;;;;;;2.47;2.27;;;6.00;79.20;;;4.90;80.85;97627.53;5453689;26;20981;-73
2024/04/20 07:12:22;;;;;;;3.30;2.47;;;5.90;79.20;;;4.73;80.52;97633.13;5457280;26;20513;-73
2024/04/20 07:14:51;;;;;;;2.90;2.57;;;5.80;78.90;;;4.81;81.79;97641.06;5429661;26;20504;-72
2024/04/20 07:17:20;;;;;;;3.50;2.40;;;5.90;79.60;;;4.75;80.71;97635.63;5441322;26;20465;-72
2024/04/20 07:19:50;;;;;;;2.40;1.47;;;5.80;78.90;;;4.63;80.47;97648.66;5408589;26;20469;-72
2024/04/20 07:22:20;;;;;;;1.80;1.70;;;5.70;78.50;;;4.70;80.43;97646.03;5426761;26;20471;-73
2024/04/20 07:24:55;;;;;;;3.30;1.70;;;5.70;78.60;;;4.81;79.49;97643.75;5428995;26;20475;-72
2024/04/20 07:27:24;;;;;;;3.03;2.10;;;5.80;78.30;;;4.80;79.27;97647.44;5409879;26;21144;-73
2024/04/20 07:29:54;;;;;;;43.20;8.63;;;5.80;78.00;;;5.01;79.28;97651.16;5432759;26;20516;-73
2024/04/20 07:32:25;;;;;;;3.70;2.63;;;5.90;78.30;;;5.22;78.80;97658.41;5396678;26;20999;-74
2024/04/20 07:34:54;;;;;;;2.40;1.90;;;6.10;78.30;;;5.18;77.32;97673.19;5437075;26;20956;-71
2024/04/20 07:37:25;;;;;;;9.30;3.13;;;6.10;77.20;;;5.00;77.92;97670.94;5436152;26;21287;-72
2024/04/20 07:39:56;;;;;;;3.30;3.00;;;6.10;77.20;;;4.91;78.16;97685.44;5447192;26;20506;-72
2024/04/20 07:42:26;;;;;;;3.10;2.00;;;6.00;77.20;;;4.90;78.23;97681.94;5456906;26;20512;-73
2024/04/20 07:44:56;;;;;;;1.83;1.60;;;5.90;77.20;;;4.89;77.81;97693.66;5405694;26;20488;-72
2024/04/20 07:47:25;;;;;;;3.70;2.80;;;5.90;77.00;;;4.64;77.25;97623.56;5389191;26;20469;-74
2024/04/20 07:49:56;;;;;;;2.60;2.40;;;6.00;76.90;;;5.12;76.85;97695.34;5408979;26;20512;-74
2024/04/20 07:52:25;;;;;;;2.03;1.70;;;6.10;76.70;;;5.02;76.44;97682.28;5425813;26;20585;-75
2024/04/20 07:54:57;;;;;;;2.43;2.00;;;6.10;76.30;;;5.13;76.22;97696.19;5415159;26;20527;-74
2024/04/20 07:57:25;;;;;;;2.40;2.20;;;6.10;76.30;;;5.31;76.46;97704.66;5436596;26;20452;-76
2024/04/20 07:59:55;;;;;;;2.80;2.07;;;6.20;76.50;;;5.19;75.86;97716.88;5447651;26;20527;-71
2024/04/20 08:02:24;;;;;;;2.53;2.33;;;6.20;75.90;;;5.18;75.91;97710.69;5436910;26;21016;-75
2024/04/20 08:04:53;;;;;;;3.00;2.70;;;6.20;76.30;;;5.08;76.64;97705.63;5420396;26;20488;-74
2024/04/20 08:07:24;;;;;;;2.30;2.10;;;6.10;76.20;;;5.10;76.72;97718.81;5448760;26;20453;-74
2024/04/20 08:09:56;;;;;;;2.80;1.77;;;6.10;76.30;;;4.95;76.87;97726.91;5458041;26;20456;-75
2024/04/20 08:12:25;;;;;;;2.00;1.60;;;6.00;76.10;;;4.89;75.70;97723.13;5456272;26;20461;-74
2024/04/20 08:14:55;;;;;;;2.90;2.10;;;6.00;75.50;;;4.82;75.93;97732.88;5428269;26;21058;-71
2024/04/20 08:17:26;;;;;;;2.87;1.90;;;5.90;75.40;;;4.82;75.68;97736.41;5448659;26;21017;-76
2024/04/20 08:19:55;;;;;;;1.83;1.30;;;5.90;75.30;;;4.86;75.03;97738.72;5435237;26;20583;-75
2024/04/20 08:22:25;;;;;;;2.00;1.70;;;6.00;75.20;;;4.96;75.28;97725.88;5433084;26;20534;-76
2024/04/20 08:24:56;;;;;;;1.90;1.70;;;6.00;75.30;;;5.22;74.62;97753.97;5415603;26;21265;-74
2024/04/20 08:27:27;;;;;;;1.83;1.67;;;6.20;75.00;;;5.31;72.52;97738.66;5419949;26;20517;-73
2024/04/20 08:29:55;;;;;;;1.67;1.50;;;6.40;74.20;;;5.60;72.38;97761.84;5441300;26;21158;-75
2024/04/20 08:32:25;;;;;;;1.63;1.53;;;6.50;74.10;;;5.93;70.19;97766.72;5424347;26;20884;-78
2024/04/20 08:34:54;;;;;;;2.37;1.70;;;6.80;73.30;;;6.03;68.77;97760.25;5433064;26;20468;-80
2024/04/20 08:37:23;;;;;;;1.73;1.63;;;6.90;72.20;;;6.21;66.34;97763.28;5426524;26;20457;-86
2024/04/20 08:39:52;;;;;;;1.37;1.27;;;7.20;70.40;;;6.28;65.74;97787.50;5460674;26;20571;-70
2024/04/20 08:42:31;;;;;;;3.70;2.73;;;7.30;69.40;;;6.18;65.33;97774.41;5458339;26;20530;-72
2024/04/20 08:45:03;;;;;;;3.50;2.27;;;7.20;68.70;;;6.12;65.89;97775.16;5453103;26;20545;-71
2024/04/20 08:47:33;;;;;;;1.57;1.47;;;7.20;68.90;;;6.16;64.93;97780.97;5453563;26;20460;-70
2024/04/20 08:50:03;;;;;;;2.00;1.30;;;7.10;68.10;;;6.23;65.37;97788.06;5445578;26;20966;-71
2024/04/20 08:52:33;;;;;;;1.60;1.50;;;7.20;68.30;;;6.60;65.29;97789.81;5443497;26;20807;-70
2024/04/20 08:55:03;;;;;;;1.50;1.40;;;7.40;68.60;;;6.48;64.55;97776.06;5452266;26;20944;-72
2024/04/20 08:57:38;;;;;;;1.57;1.30;;;7.50;67.70;;;6.22;64.18;97796.31;5459668;26;20458;-76
2024/04/20 09:00:08;;;;;;;1.20;1.13;;;7.30;66.90;;;6.17;64.98;97782.63;5456684;26;20443;-76
2024/04/20 09:02:42;;;;;;;1.90;1.50;;;7.20;67.40;;;6.49;64.20;97797.38;5457737;26;20514;-77
2024/04/20 09:05:12;;;;;;;0.90;0.90;;;7.40;67.20;;;6.35;63.75;97806.34;5464046;26;20567;-74
2024/04/20 09:07:41;;;;;;;1.37;1.27;;;7.30;66.30;;;6.47;62.49;97803.94;5424030;26;20504;-77
2024/04/20 09:10:10;;;;;;;2.00;1.53;;;7.50;65.70;;;6.67;62.50;97798.72;5445713;26;20461;-74
2024/04/20 09:12:42;;;;;;;1.77;1.53;;;7.60;66.00;;;6.85;61.89;97810.81;5435663;26;20513;-76
2024/04/20 09:15:12;;;;;;;4.43;2.70;;;7.80;65.30;;;7.05;61.70;97813.63;5439444;26;20566;-79
2024/04/20 09:17:40;;;;;;;4.20;3.20;;;8.00;65.20;;;6.60;61.95;97809.41;5432577;26;20465;-74
2024/04/20 09:20:11;;;;;;;4.03;2.80;;;7.70;64.60;;;6.63;61.80;97829.69;5463353;26;20502;-73
2024/04/20 09:22:41;;;;;;;5.20;3.60;;;7.60;64.60;;;6.67;62.03;97830.94;5470461;26;21064;-78
2024/04/20 09:25:10;;;;;;;2.73;2.00;;;7.60;64.90;;;6.69;62.20;97818.16;5440366;26;21020;-80
2024/04/20 09:27:41;;;;;;;2.60;2.33;;;7.70;65.10;;;7.14;61.84;97830.44;5454818;26;20457;-77
2024/04/20 09:30:11;;;;;;;2.80;1.80;;;7.90;65.30;;;7.29;61.24;97833.00;5454632;26;20513;-81
2024/04/20 09:32:46;;;;;;;1.93;1.50;;;8.10;64.70;;;7.06;60.84;97840.31;5432326;26;20476;-77
2024/04/20 09:35:16;;;;;;;2.43;1.60;;;8.10;64.30;;;6.86;61.40;97785.63;5445885;26;20602;-80
2024/04/20 09:37:45;;;;;;;2.97;1.33;;;8.10;64.70;;;7.04;61.64;97841.53;5468650;26;20440;-74
2024/04/20 09:40:14;;;;;;;2.63;1.40;;;8.10;64.40;;;7.07;61.51;97858.09;5477698;26;20463;-76
2024/04/20 09:42:49;;;;;;;1.10;0.97;;;8.00;64.00;;;7.10;61.25;97851.47;5450725;26;20524;-74
2024/04/20 09:45:21;;;;;;;2.20;1.33;;;8.10;63.90;;;7.55;60.26;97861.88;5463813;26;20537;-74
2024/04/20 09:47:51;;;;;;;1.63;1.10;;;8.40;64.10;;;7.37;60.00;97863.22;5471954;26;20517;-74
2024/04/20 09:50:21;;;;;;;1.60;1.17;;;8.40;63.50;;;7.10;61.67;97864.91;5449209;26;20510;-75
2024/04/20 09:52:58;;;;;;;3.60;1.40;;;8.10;63.70;;;7.22;60.84;97863.34;5448399;26;21052;-75
2024/04/20 09:55:32;;;;;;;1.40;1.30;;;8.20;63.50;;;6.91;62.47;97861.09;5459077;26;20496;-74
2024/04/20 09:58:05;;;;;;;1.90;1.33;;;8.10;64.50;;;6.75;63.10;97881.84;5457179;26;20465;-77
2024/04/20 10:00:36;;;;;;;1.73;1.40;;;7.80;64.80;;;7.05;60.68;97870.06;5453848;26;20511;-77
2024/04/20 10:03:08;;;;;;;1.70;0.90;;;8.00;63.50;;;7.43;60.72;97876.91;5455927;26;20461;-75
2024/04/20 10:05:40;;;;;;;1.37;1.27;;;8.20;64.00;;;7.77;59.15;97867.97;5436729;26;20461;-76
2024/04/20 10:08:11;;;;;;;1.67;1.20;;;8.60;62.90;;;7.73;58.10;97873.94;5444654;26;20753;-76
2024/04/20 10:10:45;;;;;;;2.07;1.37;;;8.60;61.80;;;7.95;57.49;97869.25;5456090;26;20536;-76
2024/04/20 10:13:17;;;;;;;1.30;1.20;;;8.80;61.80;;;7.88;56.94;97868.38;5445732;26;21469;-76
2024/04/20 10:15:48;;;;;;;1.10;1.10;;;8.90;60.80;;;7.75;57.49;97858.44;5427729;26;20465;-77
2024/04/20 10:18:17;;;;;;;1.87;1.03;;;8.80;61.00;;;7.82;57.01;97867.38;5436387;26;20529;-78
2024/04/20 10:20:46;;;;;;;1.23;1.00;;;8.80;60.40;;;7.86;56.65;97879.38;5419533;26;20816;-77
2024/04/20 10:23:18;;;;;;;1.30;1.20;;;8.90;60.20;;;7.89;56.43;97860.13;5446653;26;20456;-74
2024/04/20 10:25:49;;;;;;;1.20;1.10;;;8.90;60.10;;;7.94;56.54;97881.88;5427154;26;20709;-76
2024/04/20 10:28:35;;;;;;;1.03;0.93;;;8.90;59.90;;;8.10;55.96;97885.22;5465196;26;20558;-77
2024/04/20 10:31:06;;;;;;;1.13;1.03;;;8.90;59.50;;;8.17;55.09;97887.94;5455540;26;20468;-77
2024/04/20 10:33:39;;;;;;;0.93;0.90;;;9.00;58.80;;;8.20;54.59;97891.06;5449480;26;20581;-76
2024/04/20 10:36:12;;;;;;;2.63;1.20;;;9.10;58.30;;;8.29;54.78;97880.13;5433773;26;20545;-74
2024/04/20 10:38:41;;;;;;;1.20;1.00;;;9.20;58.50;;;8.48;54.59;97890.09;5438590;26;20513;-77
2024/04/20 10:41:15;;;;;;;1.20;1.10;;;9.30;58.80;;;9.09;53.56;97883.91;5454681;26;20938;-75
2024/04/20 10:43:48;;;;;;;1.40;1.30;;;9.70;58.50;;;9.31;51.75;97877.22;5457754;26;21045;-75
2024/04/20 10:46:20;;;;;;;1.67;1.03;;;10.10;56.50;;;9.07;52.50;97884.09;5414563;26;20476;-78